Time;durP1;ratioP1;P1;durP2;ratioP2;P2;SDS_P1;SDS_P2;PMS_P1;PMS_P2;Temp;Humidity;BMP_temperature;BMP_pressure;BME280_temperature;BME280_humidity;BME280_pressure;Samples;Min_cycle;Max_cycle;Signal;HPM_P1;HPM_P2
2023/06/04 00:00:48;;;;;;;8.37;4.03;;;9.70;94.40;;;;;;4803370;29;20137;-67
2023/06/04 00:03:14;;;;;;;9.33;3.97;;;9.70;95.20;;;;;;4805392;29;20092;-67
2023/06/04 00:05:39;;;;;;;7.80;4.00;;;9.60;94.50;;;;;;4808209;29;20049;-67
2023/06/04 00:08:05;;;;;;;9.20;4.07;;;9.60;94.80;;;;;;4803860;29;20058;-67
2023/06/04 00:10:32;;;;;;;10.73;3.87;;;9.60;95.70;;;;;;4790707;29;20054;-67
2023/06/04 00:12:57;;;;;;;8.75;3.78;;;9.60;94.20;;;;;;4805754;29;20055;-67
2023/06/04 00:15:24;;;;;;;9.83;4.10;;;9.60;96.00;;;;;;4809242;29;20107;-67
2023/06/04 00:17:49;;;;;;;11.30;3.70;;;9.60;95.60;;;;;;4806584;29;20034;-67
2023/06/04 00:20:16;;;;;;;8.80;3.70;;;9.60;96.30;;;;;;4806723;29;20049;-67
2023/06/04 00:22:41;;;;;;;8.27;3.20;;;9.60;96.30;;;;;;4806464;29;20042;-67
2023/06/04 00:25:09;;;;;;;9.87;4.20;;;9.50;96.80;;;;;;4807097;29;20050;-67
2023/06/04 00:27:35;;;;;;;7.10;3.15;;;9.50;95.90;;;;;;4806939;29;20126;-67
2023/06/04 00:30:01;;;;;;;8.50;3.70;;;9.50;95.90;;;;;;4807322;29;20058;-67
2023/06/04 00:32:26;;;;;;;11.27;3.37;;;9.60;96.70;;;;;;4791251;29;20034;-67
2023/06/04 00:34:57;;;;;;;10.97;3.80;;;9.60;96.10;;;;;;4809768;29;20054;-67
2023/06/04 00:37:24;;;;;;;9.50;3.75;;;9.60;96.30;;;;;;4804095;29;20473;-67
2023/06/04 00:39:50;;;;;;;7.28;4.25;;;9.60;97.60;;;;;;4801185;29;20057;-67
2023/06/04 00:42:16;;;;;;;13.68;3.75;;;9.60;97.70;;;;;;4816197;29;20078;-67
2023/06/04 00:44:44;;;;;;;7.90;3.45;;;9.50;97.10;;;;;;4803565;29;20042;-67
2023/06/04 00:47:17;;;;;;;9.90;4.03;;;9.50;96.30;;;;;;4803633;29;20050;-67
2023/06/04 00:49:43;;;;;;;9.55;3.78;;;9.50;97.10;;;;;;4808568;29;20046;-67
2023/06/04 00:52:09;;;;;;;12.53;3.70;;;9.50;97.30;;;;;;4803873;29;20052;-67
2023/06/04 00:54:36;;;;;;;11.23;4.03;;;9.40;97.50;;;;;;4802765;29;20050;-67
2023/06/04 00:57:04;;;;;;;9.00;3.47;;;9.40;97.60;;;;;;4804733;29;20148;-67
2023/06/04 00:59:35;;;;;;;5.70;3.20;;;9.40;99.30;;;;;;4804300;29;20045;-67
2023/06/04 01:02:08;;;;;;;9.35;3.67;;;9.40;98.50;;;;;;4808124;29;20057;-67
2023/06/04 01:04:37;;;;;;;12.02;4.63;;;9.40;98.90;;;;;;4789163;29;20117;-67
2023/06/04 01:07:06;;;;;;;8.32;3.35;;;9.30;98.50;;;;;;4790740;29;20185;-67
2023/06/04 01:09:33;;;;;;;9.63;3.78;;;9.30;98.10;;;;;;4815106;29;20441;-67
2023/06/04 01:11:59;;;;;;;10.73;3.40;;;9.30;98.20;;;;;;4817626;29;20042;-67
2023/06/04 01:14:25;;;;;;;12.40;4.37;;;9.30;98.60;;;;;;4805748;29;20483;-67
2023/06/04 01:17:01;;;;;;;9.20;3.95;;;9.20;99.20;;;;;;4808261;29;20296;-67
2023/06/04 01:19:59;;;;;;;11.55;4.45;;;9.20;99.00;;;;;;4807163;29;20062;-67
2023/06/04 01:22:37;;;;;;;13.40;3.92;;;9.20;98.60;;;;;;4799023;29;20054;-67
2023/06/04 01:25:09;;;;;;;10.23;3.78;;;9.10;98.60;;;;;;4809120;29;20122;-67
2023/06/04 01:27:36;;;;;;;11.68;4.63;;;9.10;99.20;;;;;;4806847;29;20054;-67
2023/06/04 01:30:03;;;;;;;12.15;4.47;;;9.10;99.20;;;;;;4808576;29;20157;-67
2023/06/04 01:32:29;;;;;;;10.52;3.55;;;9.10;99.90;;;;;;4806859;29;20106;-67
2023/06/04 01:34:55;;;;;;;12.10;4.75;;;9.10;99.90;;;;;;4808466;29;20086;-67
2023/06/04 01:37:21;;;;;;;13.43;4.10;;;9.10;99.90;;;;;;4806781;29;20538;-67
2023/06/04 01:39:47;;;;;;;7.10;3.37;;;9.10;99.90;;;;;;4800238;29;20296;-67
2023/06/04 01:42:13;;;;;;;7.70;4.07;;;9.10;99.90;;;;;;4816347;29;20351;-67
2023/06/04 01:44:38;;;;;;;7.70;3.57;;;9.10;99.90;;;;;;4805572;29;20120;-67
2023/06/04 01:47:04;;;;;;;8.60;3.90;;;9.00;99.90;;;;;;4788835;29;20115;-67
2023/06/04 01:49:30;;;;;;;9.38;3.35;;;9.00;99.90;;;;;;4804113;29;20046;-67
2023/06/04 01:51:56;;;;;;;10.50;3.77;;;9.00;99.90;;;;;;4804435;29;20064;-67
2023/06/04 01:54:22;;;;;;;7.00;3.50;;;8.90;99.90;;;;;;4790434;29;20469;-67
2023/06/04 01:56:48;;;;;;;10.87;4.00;;;8.90;99.90;;;;;;4804154;29;20287;-67
2023/06/04 01:59:16;;;;;;;9.63;3.80;;;8.90;99.90;;;;;;4804659;29;20043;-67
2023/06/04 02:01:42;;;;;;;8.98;3.47;;;8.80;99.90;;;;;;4804932;29;20066;-67
2023/06/04 02:04:07;;;;;;;11.60;4.00;;;8.80;99.90;;;;;;4806327;29;20121;-67
2023/06/04 02:06:33;;;;;;;8.57;3.40;;;8.80;99.90;;;;;;4804642;29;20138;-67
2023/06/04 02:09:00;;;;;;;7.55;3.10;;;8.70;99.90;;;;;;4806491;29;20078;-67
2023/06/04 02:11:26;;;;;;;13.50;4.30;;;8.70;99.90;;;;;;4805249;29;20126;-67
2023/06/04 02:13:51;;;;;;;8.13;3.60;;;8.70;99.90;;;;;;4791387;29;20137;-67
2023/06/04 02:16:17;;;;;;;12.97;4.03;;;8.60;99.90;;;;;;4803171;29;20049;-67
2023/06/04 02:18:43;;;;;;;6.77;3.50;;;8.60;99.90;;;;;;4818345;29;20034;-67
2023/06/04 02:21:08;;;;;;;9.93;3.60;;;8.60;99.90;;;;;;4790191;29;20495;-67
2023/06/04 02:23:34;;;;;;;9.40;3.57;;;8.50;99.90;;;;;;4807218;29;20050;-67
2023/06/04 02:26:00;;;;;;;8.40;4.27;;;8.50;99.90;;;;;;4802800;29;20179;-67
2023/06/04 02:28:26;;;;;;;9.23;3.20;;;8.50;99.90;;;;;;4803133;29;20058;-67
2023/06/04 02:30:52;;;;;;;9.88;3.88;;;8.40;99.90;;;;;;4790808;29;20042;-67
2023/06/04 02:33:17;;;;;;;13.93;4.00;;;8.40;99.90;;;;;;4805930;29;20594;-67
2023/06/04 02:35:43;;;;;;;10.57;4.30;;;8.40;99.90;;;;;;4803184;29;20043;-67
2023/06/04 02:38:09;;;;;;;9.20;4.00;;;8.50;99.90;;;;;;4810233;29;20046;-67
2023/06/04 02:40:35;;;;;;;13.43;4.63;;;8.50;99.90;;;;;;4809147;29;20130;-67
2023/06/04 02:43:01;;;;;;;9.03;3.67;;;8.50;99.90;;;;;;4804383;29;20157;-67
2023/06/04 02:45:28;;;;;;;8.67;3.77;;;8.50;99.90;;;;;;4803448;29;20563;-67
2023/06/04 02:47:53;;;;;;;10.38;4.05;;;8.50;99.90;;;;;;4801607;29;20046;-68
2023/06/04 02:50:19;;;;;;;9.47;4.13;;;8.60;99.90;;;;;;4789170;29;20046;-67
2023/06/04 02:52:45;;;;;;;10.18;4.20;;;8.60;99.90;;;;;;4803739;29;20038;-67
2023/06/04 02:55:12;;;;;;;8.50;3.67;;;8.60;99.90;;;;;;4787873;29;20565;-67
2023/06/04 02:57:41;;;;;;;12.00;4.55;;;8.60;99.90;;;;;;4823262;29;20046;-67
2023/06/04 03:00:11;;;;;;;11.85;4.18;;;8.50;99.90;;;;;;4807453;29;20050;-67
2023/06/04 03:02:46;;;;;;;9.18;4.13;;;8.60;99.90;;;;;;4793369;29;20065;-67
2023/06/04 03:05:14;;;;;;;13.10;4.40;;;8.50;99.90;;;;;;4807884;29;20054;-67
2023/06/04 03:07:42;;;;;;;8.43;4.28;;;8.60;99.90;;;;;;4808303;29;20402;-67
2023/06/04 03:10:11;;;;;;;12.60;4.18;;;8.60;99.90;;;;;;4809222;29;20160;-67
2023/06/04 03:12:36;;;;;;;9.57;4.65;;;8.60;99.90;;;;;;4808057;29;20166;-67
2023/06/04 03:15:03;;;;;;;13.63;4.10;;;8.50;99.90;;;;;;4809131;29;20517;-67
2023/06/04 03:17:31;;;;;;;8.63;4.20;;;8.50;99.90;;;;;;4822503;29;20202;-68
2023/06/04 03:19:57;;;;;;;13.15;4.75;;;8.50;99.90;;;;;;4809656;29;20041;-67
2023/06/04 03:22:22;;;;;;;7.80;4.27;;;8.50;99.90;;;;;;4805769;29;20074;-67
2023/06/04 03:24:48;;;;;;;11.20;5.03;;;8.50;99.90;;;;;;4807830;29;20054;-67
2023/06/04 03:27:14;;;;;;;11.50;4.50;;;8.50;99.90;;;;;;4807985;29;20478;-67
2023/06/04 03:29:40;;;;;;;12.20;4.97;;;8.50;99.90;;;;;;4809584;29;20041;-67
2023/06/04 03:32:06;;;;;;;14.80;4.80;;;8.50;99.90;;;;;;4808012;29;20106;-67
2023/06/04 03:34:32;;;;;;;12.95;5.68;;;8.50;99.90;;;;;;4807719;29;20061;-68
2023/06/04 03:36:58;;;;;;;11.30;5.57;;;8.50;99.90;;;;;;4808164;29;20042;-67
2023/06/04 03:39:24;;;;;;;11.52;5.78;;;8.60;99.90;;;;;;4799704;29;20110;-67
2023/06/04 03:41:50;;;;;;;14.23;6.53;;;8.60;99.90;;;;;;4802850;29;20128;-68
2023/06/04 03:44:16;;;;;;;15.13;6.80;;;8.60;99.90;;;;;;4808798;29;20068;-67
2023/06/04 03:46:43;;;;;;;13.15;7.50;;;8.60;99.90;;;;;;4806433;29;20102;-67
2023/06/04 03:49:10;;;;;;;14.30;7.30;;;8.70;99.90;;;;;;4807788;29;20702;-67
2023/06/04 03:51:40;;;;;;;15.65;8.05;;;8.70;99.90;;;;;;4804963;29;20042;-67
2023/06/04 03:54:05;;;;;;;17.42;8.43;;;8.70;99.90;;;;;;4808353;29;20557;-67
2023/06/04 03:56:32;;;;;;;16.93;8.30;;;8.80;99.90;;;;;;4792274;29;20031;-67
2023/06/04 03:58:58;;;;;;;18.13;8.38;;;8.80;99.90;;;;;;4807040;29;20058;-68
2023/06/04 04:01:24;;;;;;;21.02;9.02;;;8.90;99.90;;;;;;4806227;29;20054;-68
2023/06/04 04:03:50;;;;;;;17.87;9.00;;;9.00;99.90;;;;;;4808715;29;20070;-67
2023/06/04 04:06:17;;;;;;;15.90;8.70;;;9.00;99.90;;;;;;4806216;29;20303;-68
2023/06/04 04:08:43;;;;;;;18.35;9.23;;;9.00;99.90;;;;;;4809527;29;20406;-68
2023/06/04 04:11:13;;;;;;;14.95;8.88;;;9.10;99.90;;;;;;4806976;29;20051;-67
2023/06/04 04:13:39;;;;;;;18.25;9.13;;;9.10;99.90;;;;;;4805365;29;20054;-67
2023/06/04 04:16:05;;;;;;;18.83;9.10;;;9.20;99.90;;;;;;4807561;29;20046;-68
2023/06/04 04:18:35;;;;;;;15.23;9.63;;;9.20;99.90;;;;;;4823394;29;20071;-68
2023/06/04 04:21:02;;;;;;;18.02;8.52;;;9.30;99.90;;;;;;4808827;29;20298;-68
2023/06/04 04:23:29;;;;;;;14.32;8.80;;;9.30;99.90;;;;;;4810331;29;20503;-68
2023/06/04 04:25:58;;;;;;;18.38;9.23;;;9.40;99.90;;;;;;4808973;29;20124;-68
2023/06/04 04:28:28;;;;;;;15.77;9.15;;;9.40;99.90;;;;;;4811700;29;20503;-68
2023/06/04 04:30:56;;;;;;;17.15;8.95;;;9.50;99.90;;;;;;4807860;29;20568;-68
2023/06/04 04:33:24;;;;;;;14.18;8.27;;;9.60;99.90;;;;;;4809016;29;20476;-68
2023/06/04 04:35:52;;;;;;;15.23;8.30;;;9.60;99.90;;;;;;4793542;29;20467;-67
2023/06/04 04:38:19;;;;;;;14.00;8.65;;;9.90;99.90;;;;;;4808062;29;20407;-67
2023/06/04 04:40:47;;;;;;;14.23;7.72;;;10.50;99.90;;;;;;4812663;29;20542;-68
2023/06/04 04:43:13;;;;;;;12.57;6.65;;;11.20;99.90;;;;;;4806500;29;20050;-68
2023/06/04 04:45:39;;;;;;;11.55;6.53;;;11.80;99.90;;;;;;4790978;29;20053;-68
2023/06/04 04:48:05;;;;;;;13.97;6.40;;;12.10;99.90;;;;;;4804000;29;20450;-68
2023/06/04 04:50:31;;;;;;;12.97;6.43;;;12.20;99.90;;;;;;4805512;29;20076;-68
2023/06/04 04:52:58;;;;;;;16.60;6.97;;;12.40;99.90;;;;;;4807425;29;20550;-68
2023/06/04 04:55:23;;;;;;;11.00;6.15;;;13.00;99.90;;;;;;4789324;29;20495;-68
2023/06/04 04:57:49;;;;;;;11.07;6.70;;;13.60;98.20;;;;;;4804726;29;20039;-68
2023/06/04 05:00:16;;;;;;;14.80;6.33;;;14.20;96.10;;;;;;4765894;29;1156288;-68
2023/06/04 05:02:41;;;;;;;11.60;5.68;;;14.70;92.90;;;;;;4805659;29;20519;-68
2023/06/04 05:05:07;;;;;;;10.90;6.23;;;15.20;90.10;;;;;;4806297;29;20054;-68
2023/06/04 05:07:33;;;;;;;10.50;5.03;;;15.70;87.50;;;;;;4790215;29;20385;-68
2023/06/04 05:10:00;;;;;;;8.93;4.83;;;16.00;86.10;;;;;;4805343;29;20489;-68
2023/06/04 05:12:26;;;;;;;9.90;5.10;;;16.20;83.20;;;;;;4805601;29;20251;-68
2023/06/04 05:14:52;;;;;;;8.80;4.43;;;16.50;82.70;;;;;;4806628;29;20060;-68
2023/06/04 05:17:21;;;;;;;9.03;4.53;;;16.80;81.40;;;;;;4805370;29;20567;-68
2023/06/04 05:19:47;;;;;;;9.70;5.53;;;17.00;80.40;;;;;;4805873;29;20043;-68
2023/06/04 05:22:15;;;;;;;10.83;4.50;;;17.20;79.40;;;;;;4805728;29;20797;-68
2023/06/04 05:24:41;;;;;;;8.87;4.60;;;17.50;78.20;;;;;;4805450;29;20456;-68
2023/06/04 05:27:09;;;;;;;6.97;4.10;;;17.70;77.20;;;;;;4806523;29;20295;-68
2023/06/04 05:29:35;;;;;;;9.23;4.60;;;17.70;76.30;;;;;;4805594;29;20484;-68
2023/06/04 05:32:00;;;;;;;11.30;4.57;;;17.60;76.50;;;;;;4805313;29;20384;-68
2023/06/04 05:34:26;;;;;;;10.60;4.47;;;17.70;76.30;;;;;;4804802;29;20050;-68
2023/06/04 05:36:52;;;;;;;7.70;5.00;;;17.90;75.60;;;;;;4788400;29;20472;-68
2023/06/04 05:39:18;;;;;;;10.33;4.70;;;18.20;74.90;;;;;;4809687;29;20049;-68
2023/06/04 05:41:45;;;;;;;9.90;4.77;;;18.50;73.60;;;;;;4815087;29;20324;-68
2023/06/04 05:44:10;;;;;;;11.63;4.90;;;18.70;72.90;;;;;;4804430;29;20795;-68
2023/06/04 05:46:36;;;;;;;9.30;5.00;;;18.90;71.60;;;;;;4803680;29;20343;-68
2023/06/04 05:49:02;;;;;;;11.27;5.93;;;19.00;71.10;;;;;;4806086;29;20057;-68
2023/06/04 05:51:28;;;;;;;10.43;5.57;;;18.80;70.70;;;;;;4805223;29;20074;-68
2023/06/04 05:53:54;;;;;;;10.30;6.10;;;18.40;72.50;;;;;;4803857;29;20050;-68
2023/06/04 05:56:20;;;;;;;11.73;5.90;;;18.20;73.40;;;;;;4805045;29;20287;-68
2023/06/04 05:58:52;;;;;;;12.73;6.43;;;18.30;74.40;;;;;;4804836;29;20096;-69
2023/06/04 06:01:18;;;;;;;13.10;5.67;;;18.50;72.30;;;;;;4805213;29;20310;-68
2023/06/04 06:03:44;;;;;;;13.53;5.60;;;18.60;71.30;;;;;;4789887;29;20291;-68
2023/06/04 06:06:13;;;;;;;12.57;5.57;;;18.60;71.20;;;;;;4805721;29;20299;-68
2023/06/04 06:08:39;;;;;;;10.37;5.03;;;18.70;71.50;;;;;;4804567;29;20127;-68
2023/06/04 06:11:05;;;;;;;13.53;5.67;;;18.90;70.50;;;;;;4805020;29;20322;-68
2023/06/04 06:13:31;;;;;;;12.00;5.20;;;18.90;69.90;;;;;;4803569;29;20291;-68
2023/06/04 06:15:57;;;;;;;11.07;4.47;;;18.90;69.90;;;;;;4805296;29;20058;-68
2023/06/04 06:18:23;;;;;;;12.27;4.77;;;18.60;70.00;;;;;;4804826;29;20101;-68
2023/06/04 06:20:48;;;;;;;9.10;4.50;;;18.70;70.10;;;;;;4804881;29;20645;-68
2023/06/04 06:23:15;;;;;;;9.23;4.00;;;18.60;69.90;;;;;;4805086;29;20464;-68
2023/06/04 06:25:41;;;;;;;11.33;4.40;;;18.50;69.90;;;;;;4804651;29;20050;-68
2023/06/04 06:28:07;;;;;;;7.83;4.10;;;18.40;70.10;;;;;;4792970;29;20798;-68
2023/06/04 06:30:32;;;;;;;10.93;4.40;;;18.40;70.30;;;;;;4805072;29;20154;-68
2023/06/04 06:32:58;;;;;;;9.33;4.03;;;18.40;71.00;;;;;;4808726;29;20039;-68
2023/06/04 06:35:24;;;;;;;12.90;4.90;;;18.60;71.30;;;;;;4808805;29;20167;-68
2023/06/04 06:37:49;;;;;;;10.83;4.23;;;18.80;70.50;;;;;;4811513;29;20062;-68
2023/06/04 06:40:15;;;;;;;11.47;4.67;;;19.10;70.00;;;;;;4816328;29;20678;-68
2023/06/04 06:42:41;;;;;;;9.10;4.40;;;19.20;69.00;;;;;;4808560;29;20062;-68
2023/06/04 06:45:07;;;;;;;8.43;4.30;;;19.20;68.50;;;;;;4792990;29;20133;-68
2023/06/04 06:47:32;;;;;;;10.70;4.10;;;19.20;68.50;;;;;;4806700;29;20054;-68
2023/06/04 06:49:58;;;;;;;8.27;2.97;;;19.10;68.30;;;;;;4806788;29;20042;-68
2023/06/04 06:52:24;;;;;;;11.53;3.80;;;19.10;68.60;;;;;;4807538;29;20521;-68
2023/06/04 06:54:50;;;;;;;9.23;3.50;;;19.00;69.00;;;;;;4806470;29;20242;-68
2023/06/04 06:57:16;;;;;;;7.57;2.80;;;19.10;69.20;;;;;;4806545;29;20137;-69
2023/06/04 06:59:42;;;;;;;8.57;3.20;;;19.00;68.90;;;;;;4806747;29;20664;-69
2023/06/04 07:02:08;;;;;;;6.67;2.57;;;18.80;69.60;;;;;;4796773;29;20307;-70
2023/06/04 07:04:34;;;;;;;8.50;2.80;;;18.70;69.80;;;;;;4778155;29;20092;-70
2023/06/04 07:06:59;;;;;;;9.70;2.90;;;18.60;70.20;;;;;;4779549;29;20113;-69
2023/06/04 07:09:26;;;;;;;9.30;3.17;;;18.40;70.00;;;;;;4796705;29;20054;-70
2023/06/04 07:11:51;;;;;;;6.83;2.73;;;18.10;71.10;;;;;;4782437;29;20390;-70
2023/06/04 07:14:17;;;;;;;8.90;2.70;;;17.80;72.30;;;;;;4789545;29;20326;-70
2023/06/04 07:16:43;;;;;;;9.97;2.73;;;17.60;73.00;;;;;;4798351;29;20412;-70
2023/06/04 07:19:08;;;;;;;6.33;2.70;;;17.50;73.40;;;;;;4787845;29;20050;-70
2023/06/04 07:21:37;;;;;;;9.77;3.20;;;17.30;73.90;;;;;;4816796;29;20086;-70
2023/06/04 07:24:03;;;;;;;8.17;2.40;;;17.20;74.50;;;;;;4779558;29;20383;-69
2023/06/04 07:26:30;;;;;;;7.63;2.73;;;17.10;74.80;;;;;;4797825;29;20050;-70
2023/06/04 07:28:57;;;;;;;11.13;2.60;;;17.10;75.30;;;;;;4811641;29;20416;-70
2023/06/04 07:31:22;;;;;;;9.70;2.70;;;17.20;75.20;;;;;;4796656;29;20312;-70
2023/06/04 07:33:48;;;;;;;6.03;1.97;;;17.20;73.60;;;;;;4798827;29;20335;-70
2023/06/04 07:36:15;;;;;;;7.07;1.93;;;17.20;74.00;;;;;;4809072;29;20073;-69
2023/06/04 07:38:40;;;;;;;7.50;1.87;;;17.20;72.60;;;;;;4810774;29;20085;-70
2023/06/04 07:41:06;;;;;;;6.23;1.57;;;17.20;71.70;;;;;;4808241;29;20296;-70
2023/06/04 07:43:35;;;;;;;7.00;2.23;;;17.20;71.90;;;;;;4802921;29;20068;-70
2023/06/04 07:46:01;;;;;;;4.90;1.47;;;17.10;71.90;;;;;;4794282;29;20039;-70
2023/06/04 07:48:30;;;;;;;6.17;1.73;;;17.20;72.40;;;;;;4812007;29;20304;-70
2023/06/04 07:51:01;;;;;;;8.20;2.33;;;17.30;71.40;;;;;;4800569;29;20360;-70
2023/06/04 07:53:27;;;;;;;7.60;2.43;;;17.50;71.40;;;;;;4804745;29;20304;-70
2023/06/04 07:55:53;;;;;;;4.40;1.40;;;17.60;70.10;;;;;;4792287;29;20354;-70
2023/06/04 07:58:19;;;;;;;6.30;1.40;;;17.70;69.50;;;;;;4791877;29;20291;-69
2023/06/04 08:00:50;;;;;;;8.33;1.73;;;17.70;69.40;;;;;;4812246;29;20303;-70
2023/06/04 08:03:15;;;;;;;4.93;1.43;;;17.80;68.30;;;;;;4793716;29;20288;-71
2023/06/04 08:05:41;;;;;;;6.17;1.60;;;17.80;66.90;;;;;;4809845;29;20314;-69
2023/06/04 08:08:07;;;;;;;5.93;1.47;;;17.80;65.70;;;;;;4810724;29;20108;-69
2023/06/04 08:10:33;;;;;;;4.13;1.20;;;17.80;66.40;;;;;;4809416;29;20046;-70
2023/06/04 08:12:59;;;;;;;7.53;1.43;;;17.70;65.80;;;;;;4811528;29;20107;-69
2023/06/04 08:15:25;;;;;;;3.97;1.07;;;17.80;67.20;;;;;;4811676;29;20054;-70
2023/06/04 08:17:50;;;;;;;3.30;1.50;;;17.90;66.90;;;;;;4795247;29;20127;-69
2023/06/04 08:20:17;;;;;;;6.33;1.20;;;18.00;67.60;;;;;;4811308;29;20057;-69
2023/06/04 08:22:43;;;;;;;5.73;1.10;;;18.10;65.60;;;;;;4795362;29;20115;-70
2023/06/04 08:25:09;;;;;;;4.40;1.57;;;18.20;64.10;;;;;;4815417;29;20294;-70
2023/06/04 08:27:35;;;;;;;4.10;1.33;;;18.20;65.10;;;;;;4838187;29;20779;-72
2023/06/04 08:30:01;;;;;;;6.50;1.17;;;18.30;64.70;;;;;;4795972;29;20295;-69
2023/06/04 08:32:27;;;;;;;3.07;1.20;;;18.40;64.50;;;;;;4822229;29;20747;-69
2023/06/04 08:34:54;;;;;;;6.00;1.47;;;18.40;65.10;;;;;;4819599;29;20286;-70
2023/06/04 08:37:20;;;;;;;3.17;1.00;;;18.50;63.50;;;;;;4812616;29;20338;-70
2023/06/04 08:39:46;;;;;;;3.83;1.20;;;18.50;64.10;;;;;;4801619;29;20323;-68
2023/06/04 08:42:34;;;;;;;3.30;1.20;;;18.50;62.40;;;;;;4814926;29;20295;-69
2023/06/04 08:45:00;;;;;;;5.93;1.60;;;18.50;63.60;;;;;;4813580;29;20048;-70
2023/06/04 08:47:28;;;;;;;4.37;1.23;;;18.50;63.50;;;;;;4794948;29;20333;-69
2023/06/04 08:49:59;;;;;;;4.97;1.10;;;18.60;63.30;;;;;;4815811;29;20386;-69
2023/06/04 08:52:26;;;;;;;6.50;1.40;;;18.80;62.60;;;;;;4822548;29;20316;-69
2023/06/04 08:54:54;;;;;;;3.77;1.20;;;18.90;62.70;;;;;;4815740;29;20288;-70
2023/06/04 08:57:20;;;;;;;3.90;1.30;;;19.00;61.80;;;;;;4817909;29;20378;-70
2023/06/04 08:59:50;;;;;;;8.80;1.40;;;19.00;61.90;;;;;;4811438;29;20275;-70
2023/06/04 09:02:16;;;;;;;4.17;1.20;;;18.90;60.80;;;;;;4814092;29;20319;-70
2023/06/04 09:04:43;;;;;;;5.60;1.70;;;18.90;60.20;;;;;;4821463;29;20861;-70
2023/06/04 09:07:12;;;;;;;4.87;1.50;;;18.90;60.00;;;;;;4814260;29;20356;-69
2023/06/04 09:09:40;;;;;;;4.20;1.13;;;19.00;59.50;;;;;;4810508;29;20311;-70
2023/06/04 09:12:11;;;;;;;4.00;1.40;;;19.00;59.10;;;;;;4816958;29;20306;-69
2023/06/04 09:14:36;;;;;;;6.53;1.50;;;19.00;59.10;;;;;;4807742;29;20295;-71
2023/06/04 09:17:02;;;;;;;6.37;1.43;;;19.10;60.30;;;;;;4816200;29;20334;-70
2023/06/04 09:19:28;;;;;;;4.70;1.20;;;19.20;60.60;;;;;;4811387;29;20034;-70
2023/06/04 09:21:55;;;;;;;6.03;1.47;;;19.30;60.70;;;;;;4800635;29;20065;-69
2023/06/04 09:24:22;;;;;;;3.40;1.00;;;19.40;59.90;;;;;;4811824;29;20057;-71
2023/06/04 09:26:49;;;;;;;4.47;1.50;;;19.50;59.80;;;;;;4810725;29;20287;-70
2023/06/04 09:29:15;;;;;;;4.13;1.40;;;19.60;60.40;;;;;;4795945;29;20295;-70
2023/06/04 09:31:44;;;;;;;4.23;1.17;;;19.70;59.50;;;;;;4791127;29;20308;-70
2023/06/04 09:34:10;;;;;;;4.00;1.13;;;19.70;57.90;;;;;;4808386;29;20291;-70
2023/06/04 09:36:36;;;;;;;4.60;1.30;;;19.70;56.90;;;;;;4805968;29;20322;-71
2023/06/04 09:39:04;;;;;;;6.83;1.60;;;19.60;56.10;;;;;;4808063;29;20121;-72
2023/06/04 09:41:31;;;;;;;5.60;1.37;;;19.60;56.90;;;;;;4808012;29;20298;-70
2023/06/04 09:44:03;;;;;;;6.50;1.50;;;19.60;57.40;;;;;;4804770;29;20319;-70
2023/06/04 09:46:30;;;;;;;4.40;1.27;;;19.70;58.90;;;;;;4806670;29;20295;-70
2023/06/04 09:49:04;;;;;;;5.90;1.60;;;19.80;56.40;;;;;;4793668;29;20291;-70
2023/06/04 09:51:31;;;;;;;6.80;1.70;;;19.80;57.00;;;;;;4810127;29;20311;-69
2023/06/04 09:54:02;;;;;;;5.87;1.60;;;19.80;56.70;;;;;;4789840;29;20488;-69
2023/06/04 09:56:28;;;;;;;4.37;1.30;;;19.90;55.50;;;;;;4790940;29;20891;-70
2023/06/04 09:59:01;;;;;;;3.50;1.37;;;19.80;56.00;;;;;;4808642;29;20374;-71
2023/06/04 10:01:29;;;;;;;4.37;1.53;;;19.90;55.70;;;;;;4810437;29;20066;-70
2023/06/04 10:03:57;;;;;;;5.53;1.17;;;19.90;55.90;;;;;;4804991;29;20291;-69
2023/06/04 10:06:24;;;;;;;5.27;1.33;;;20.10;56.40;;;;;;4788578;29;20375;-69
2023/06/04 10:08:51;;;;;;;4.07;1.30;;;20.20;55.50;;;;;;4805035;29;20730;-70
2023/06/04 10:11:31;;;;;;;3.07;1.00;;;20.20;55.40;;;;;;4805463;29;20311;-70
2023/06/04 10:14:14;;;;;;;3.83;1.10;;;20.30;53.30;;;;;;4792131;29;20486;-70
2023/06/04 10:16:41;;;;;;;4.83;1.40;;;20.20;54.00;;;;;;4808371;29;20070;-69
2023/06/04 10:19:08;;;;;;;6.13;1.63;;;20.10;53.60;;;;;;4804074;29;20424;-70
2023/06/04 10:21:36;;;;;;;3.50;1.40;;;20.10;53.60;;;;;;4804741;29;20286;-70
2023/06/04 10:24:02;;;;;;;3.90;1.33;;;20.10;53.50;;;;;;4807567;29;20119;-70
2023/06/04 10:26:28;;;;;;;7.20;1.70;;;20.00;54.50;;;;;;4803381;29;20088;-69
2023/06/04 10:28:54;;;;;;;3.67;1.30;;;20.10;54.30;;;;;;4803852;29;20046;-69
2023/06/04 10:31:20;;;;;;;5.67;1.70;;;20.20;53.90;;;;;;4807598;29;20141;-70
2023/06/04 10:33:46;;;;;;;3.63;1.10;;;20.10;53.70;;;;;;4785685;29;20793;-69
2023/06/04 10:36:19;;;;;;;3.70;1.30;;;20.20;54.30;;;;;;4802243;29;20575;-69
2023/06/04 10:38:50;;;;;;;4.20;1.33;;;20.20;53.00;;;;;;4817037;29;20046;-69
2023/06/04 10:41:17;;;;;;;5.03;1.20;;;20.10;53.20;;;;;;4801986;29;20335;-70
2023/06/04 10:43:49;;;;;;;3.70;1.10;;;20.10;54.60;;;;;;4800309;29;20050;-72
2023/06/04 10:46:19;;;;;;;2.87;1.03;;;20.10;54.10;;;;;;4801553;29;20046;-72
2023/06/04 10:48:49;;;;;;;5.87;1.33;;;20.20;53.70;;;;;;4805543;29;20411;-72
2023/06/04 10:51:16;;;;;;;2.13;0.90;;;20.20;53.70;;;;;;4806928;29;20106;-73
2023/06/04 10:53:41;;;;;;;7.03;1.47;;;20.10;53.00;;;;;;4789971;29;20149;-73
2023/06/04 10:56:07;;;;;;;2.87;0.90;;;20.00;52.60;;;;;;4801012;29;20593;-72
2023/06/04 10:58:36;;;;;;;3.60;1.20;;;20.00;53.40;;;;;;4801256;29;20121;-73
2023/06/04 11:01:02;;;;;;;3.97;1.10;;;20.10;52.40;;;;;;4802749;29;20087;-71
2023/06/04 11:03:37;;;;;;;4.27;1.40;;;20.10;53.40;;;;;;4826475;29;20043;-74
2023/06/04 11:06:15;;;;;;;3.10;1.07;;;20.20;53.10;;;;;;4814014;29;20074;-72
2023/06/04 11:08:43;;;;;;;3.37;1.20;;;20.30;52.70;;;;;;4814085;29;20061;-73
2023/06/04 11:11:13;;;;;;;4.10;1.10;;;20.30;53.30;;;;;;4825914;29;20038;-73
2023/06/04 11:13:40;;;;;;;4.67;1.00;;;20.50;53.20;;;;;;4817928;29;20046;-72
2023/06/04 11:16:19;;;;;;;2.83;1.20;;;20.60;53.00;;;;;;4804615;29;20106;-73
2023/06/04 11:18:58;;;;;;;3.23;1.30;;;20.70;52.70;;;;;;4832995;29;20053;-74
2023/06/04 11:21:25;;;;;;;2.87;0.83;;;20.80;52.50;;;;;;4802864;29;20084;-73
2023/06/04 11:24:00;;;;;;;2.80;1.30;;;20.80;52.30;;;;;;4813602;29;20422;-73
2023/06/04 11:26:34;;;;;;;5.70;1.50;;;20.90;52.50;;;;;;4818788;29;20061;-73
2023/06/04 11:29:01;;;;;;;4.00;1.23;;;20.90;51.20;;;;;;4812171;29;20050;-73
2023/06/04 11:31:27;;;;;;;4.23;1.10;;;20.90;52.10;;;;;;4812067;29;20096;-73
2023/06/04 11:33:56;;;;;;;4.57;1.10;;;21.00;51.20;;;;;;4831620;29;20053;-72
2023/06/04 11:36:30;;;;;;;4.43;1.60;;;21.10;51.20;;;;;;4814637;29;20039;-73
2023/06/04 11:39:00;;;;;;;3.25;1.52;;;21.20;50.50;;;;;;4812360;29;20116;-73
2023/06/04 11:41:31;;;;;;;3.67;1.07;;;21.10;50.00;;;;;;4814079;29;20050;-72
2023/06/04 11:43:57;;;;;;;4.27;1.10;;;21.20;50.00;;;;;;4814453;29;20057;-73
2023/06/04 11:46:24;;;;;;;3.27;1.40;;;21.20;49.40;;;;;;4818499;29;20042;-71
2023/06/04 11:48:53;;;;;;;2.97;1.13;;;21.30;50.60;;;;;;4808785;29;20052;-72
2023/06/04 11:51:23;;;;;;;4.40;1.27;;;21.20;49.50;;;;;;4811473;29;20499;-72
2023/06/04 11:53:48;;;;;;;3.40;0.97;;;21.30;49.80;;;;;;4816240;29;20383;-72
2023/06/04 11:56:15;;;;;;;3.70;1.20;;;21.30;49.80;;;;;;4794550;29;20046;-74
2023/06/04 11:58:41;;;;;;;4.40;1.37;;;21.40;49.70;;;;;;4810203;29;20495;-71
2023/06/04 12:01:08;;;;;;;6.20;1.53;;;21.30;50.00;;;;;;4795975;29;20079;-72
2023/06/04 12:03:40;;;;;;;3.03;1.70;;;21.30;50.30;;;;;;4807951;29;20053;-73
2023/06/04 12:06:20;;;;;;;4.50;1.30;;;21.40;49.30;;;;;;4824741;29;20107;-72
2023/06/04 12:08:53;;;;;;;4.67;1.30;;;21.40;50.00;;;;;;4813516;29;20049;-72
2023/06/04 12:11:26;;;;;;;4.70;1.20;;;21.50;49.40;;;;;;4797628;29;20053;-72
2023/06/04 12:13:53;;;;;;;3.20;1.10;;;21.50;50.00;;;;;;4817201;29;20065;-72
2023/06/04 12:16:19;;;;;;;2.00;1.00;;;21.60;49.30;;;;;;4809999;29;20081;-72
2023/06/04 12:18:45;;;;;;;2.43;1.00;;;21.60;49.50;;;;;;4817516;29;20086;-70
2023/06/04 12:21:27;;;;;;;3.73;1.00;;;21.50;48.40;;;;;;4820330;29;20038;-72
2023/06/04 12:24:13;;;;;;;3.20;1.13;;;21.50;48.40;;;;;;4829748;29;20042;-72
2023/06/04 12:26:43;;;;;;;3.60;1.00;;;21.50;48.00;;;;;;4822782;29;20174;-73
2023/06/04 12:29:19;;;;;;;3.43;1.03;;;21.40;49.00;;;;;;4817439;29;20042;-71
2023/06/04 12:31:46;;;;;;;2.60;1.17;;;21.60;48.30;;;;;;4812288;29;20766;-72
2023/06/04 12:34:17;;;;;;;3.40;1.10;;;21.60;47.80;;;;;;4806181;29;20053;-72
2023/06/04 12:36:43;;;;;;;3.67;1.20;;;21.70;48.90;;;;;;4818866;29;20054;-72
2023/06/04 12:39:09;;;;;;;5.30;1.10;;;21.90;49.00;;;;;;4815124;29;20110;-72
2023/06/04 12:41:35;;;;;;;5.27;1.30;;;21.80;47.70;;;;;;4814620;29;20096;-72
2023/06/04 12:44:00;;;;;;;3.17;1.10;;;21.70;48.60;;;;;;4805343;29;20598;-72
2023/06/04 12:46:26;;;;;;;2.30;0.90;;;21.70;48.60;;;;;;4806837;29;20055;-72
2023/06/04 12:48:54;;;;;;;3.67;1.33;;;21.60;48.30;;;;;;4807149;29;20046;-72